Ithomi — V7UZ9 — position and weather

sailwx.info

Track history (hours):
 
Tides and Currents Weather Stations Pressure Air Temp Water Temp Dewpoint Dewpoint Depression Visibility Wind Speed Wind Dir Waves Ship Positions

Ithomi

Last reported at 2017-Jun-21 10:45 UTC. Time now 2017-Jun-22 22:27 UTC.
Position N 01°55' E 102°20'.

Length 189 m; draft 12.7 m.

Type: Cargo ship. MMSI: 538004069.

Date/timePositionNaut miles runAvg speedWind from/ knotsBaromVisibWave heightAir tempDewpointWater temp
2017-Jun-21 10:45N 01°55' E 102°20'311.2
2017-Jun-21 10:30N 01°54' E 102°22'610.9
2017-Jun-21 09:57N 01°52' E 102°28'510.9
2017-Jun-21 09:30N 01°50' E 102°32'5812.0
2017-Jun-21 04:39N 01°18' E 103°21'412.8
2017-Jun-21 04:22N 01°15' E 103°24'512.2
2017-Jun-21 03:58N 01°13' E 103°28'612.2
2017-Jun-21 03:30N 01°12' E 103°34'611.8
2017-Jun-21 03:00N 01°11' E 103°39'611.6
2017-Jun-21 02:30N 01°09' E 103°45'612.2
2017-Jun-21 02:00N 01°11' E 103°50'611.7
2017-Jun-21 01:31N 01°14' E 103°55'4 6.5
2017-Jun-21 00:55N 01°16' E 103°59'1 0.8
2017-Jun-20 23:20N 01°17' E 103°59'0 0.0
2017-Jun-20 22:59N 01°17' E 103°59'0 0.0
2017-Jun-20 21:17N 01°17' E 103°59'0 0.2
2017-Jun-20 20:53N 01°17' E 103°59'0 0.1
2017-Jun-20 20:23N 01°17' E 103°59'0 0.1
2017-Jun-20 19:59N 01°17' E 103°59'0 0.0
2017-Jun-20 18:17N 01°17' E 103°59'0 0.0
2017-Jun-20 17:14N 01°17' E 103°59'0 0.9
2017-Jun-20 16:59N 01°17' E 103°59'2 5.2
2017-Jun-20 16:30N 01°16' E 103°57'2 3.0
2017-Jun-20 16:00N 01°16' E 103°58'6 5.4
2017-Jun-20 14:56N 01°16' E 104°04'  
Track history (hours):
 
Tides and Currents Weather Stations Pressure Air Temp Water Temp Dewpoint Dewpoint Depression Visibility Wind Speed Wind Dir Waves Ship Positions

Ithomi

Last reported at 2017-Jun-21 10:45 UTC. Time now 2017-Jun-22 22:27 UTC.
Position N 01°55' E 102°20'.

Length 189 m; draft 12.7 m.

Type: Cargo ship. MMSI: 538004069.

Date/timePositionNaut miles runAvg speedWind from/ knotsBaromVisibWave heightAir tempDewpointWater temp
2017-Jun-21 10:45N 01°55' E 102°20'311.2
2017-Jun-21 10:30N 01°54' E 102°22'610.9
2017-Jun-21 09:57N 01°52' E 102°28'510.9
2017-Jun-21 09:30N 01°50' E 102°32'5812.0
2017-Jun-21 04:39N 01°18' E 103°21'412.8
2017-Jun-21 04:22N 01°15' E 103°24'512.2
2017-Jun-21 03:58N 01°13' E 103°28'612.2
2017-Jun-21 03:30N 01°12' E 103°34'611.8
2017-Jun-21 03:00N 01°11' E 103°39'611.6
2017-Jun-21 02:30N 01°09' E 103°45'612.2
2017-Jun-21 02:00N 01°11' E 103°50'611.7
2017-Jun-21 01:31N 01°14' E 103°55'4 6.5
2017-Jun-21 00:55N 01°16' E 103°59'1 0.8
2017-Jun-20 23:20N 01°17' E 103°59'0 0.0
2017-Jun-20 22:59N 01°17' E 103°59'0 0.0
2017-Jun-20 21:17N 01°17' E 103°59'0 0.2
2017-Jun-20 20:53N 01°17' E 103°59'0 0.1
2017-Jun-20 20:23N 01°17' E 103°59'0 0.1
2017-Jun-20 19:59N 01°17' E 103°59'0 0.0
2017-Jun-20 18:17N 01°17' E 103°59'0 0.0
2017-Jun-20 17:14N 01°17' E 103°59'0 0.9
2017-Jun-20 16:59N 01°17' E 103°59'2 5.2
2017-Jun-20 16:30N 01°16' E 103°57'2 3.0
2017-Jun-20 16:00N 01°16' E 103°58'6 5.4
2017-Jun-20 14:56N 01°16' E 104°04'  

Dump ship's entire track history